createdAt,value
2022-11-05T00:00:05.788Z,9.80
2022-11-05T00:03:26.589Z,8.80
2022-11-05T00:06:46.525Z,9.95
2022-11-05T00:09:49.333Z,14.95
2022-11-05T00:13:25.341Z,9.80
2022-11-05T00:16:44.682Z,9.27
2022-11-05T00:19:46.074Z,10.82
2022-11-05T00:23:06.337Z,10.60
2022-11-05T00:26:09.722Z,7.95
2022-11-05T00:29:11.122Z,8.43
2022-11-05T00:32:13.099Z,9.63
2022-11-05T00:35:15.662Z,8.80
2022-11-05T00:38:17.062Z,8.38
2022-11-05T00:41:18.481Z,8.90
2022-11-05T00:44:38.448Z,10.30
2022-11-05T00:47:58.830Z,8.45
2022-11-05T00:51:00.296Z,10.05
2022-11-05T00:54:01.785Z,8.13
2022-11-05T00:57:04.736Z,8.40
2022-11-05T01:00:06.833Z,7.55
2022-11-05T01:03:14.507Z,8.30
2022-11-05T01:06:17.401Z,7.70
2022-11-05T01:09:18.840Z,8.50
2022-11-05T01:12:20.234Z,7.80
2022-11-05T01:15:21.797Z,8.87
2022-11-05T01:18:24.415Z,8.63
2022-11-05T01:21:26.084Z,10.00
2022-11-05T01:24:27.629Z,7.38
2022-11-05T01:27:29.279Z,8.15
2022-11-05T01:30:31.446Z,8.80
2022-11-05T01:33:32.827Z,8.45
2022-11-05T01:36:34.254Z,7.33
2022-11-05T01:39:35.685Z,7.63
2022-11-05T01:42:37.059Z,7.20
2022-11-05T01:45:38.531Z,7.55
2022-11-05T01:48:40.271Z,7.63
2022-11-05T01:51:43.702Z,8.73
2022-11-05T01:54:47.147Z,7.75
2022-11-05T01:57:49.106Z,7.28
2022-11-05T02:00:50.992Z,7.63
2022-11-05T02:03:57.962Z,8.05
2022-11-05T02:06:59.933Z,9.05
2022-11-05T02:10:04.391Z,8.45
2022-11-05T02:13:05.853Z,11.32
2022-11-05T02:16:34.436Z,8.93
2022-11-05T02:19:58.762Z,8.50
2022-11-05T02:23:40.093Z,7.65
2022-11-05T02:27:03.477Z,10.40
2022-11-05T02:30:12.113Z,7.63
2022-11-05T02:33:31.095Z,9.07
2022-11-05T02:37:11.134Z,7.45
2022-11-05T02:40:33.714Z,9.10
2022-11-05T02:47:17.966Z,8.00
2022-11-05T02:50:26.710Z,7.72
2022-11-05T02:53:38.464Z,8.35
2022-11-05T02:56:44.722Z,6.00
2022-11-05T02:59:46.161Z,7.32
2022-11-05T03:02:47.741Z,8.13
2022-11-05T03:06:14.243Z,7.85
2022-11-05T03:09:57.555Z,7.70
2022-11-05T03:13:14.344Z,6.90
2022-11-05T03:16:21.380Z,7.43
2022-11-05T03:19:41.021Z,8.07
2022-11-05T03:22:54.419Z,7.65
2022-11-05T03:26:04.580Z,7.68
2022-11-05T03:29:13.307Z,7.10
2022-11-05T03:32:17.272Z,8.10
2022-11-05T03:35:34.523Z,8.15
2022-11-05T03:38:40.129Z,9.25
2022-11-05T03:41:46.665Z,8.38
2022-11-05T03:44:52.486Z,10.13
2022-11-05T03:47:58.759Z,9.02
2022-11-05T03:51:29.471Z,10.18
2022-11-05T03:54:32.447Z,9.82
2022-11-05T03:57:39.299Z,8.63
2022-11-05T04:00:40.899Z,7.75
2022-11-05T04:03:42.374Z,10.45
2022-11-05T04:07:02.523Z,9.30
2022-11-05T04:10:22.878Z,6.60
2022-11-05T04:13:24.299Z,7.45
2022-11-05T04:16:44.518Z,7.60
2022-11-05T04:20:04.413Z,9.25
2022-11-05T04:23:25.701Z,8.40
2022-11-05T04:26:27.089Z,9.02
2022-11-05T04:29:47.233Z,8.37
2022-11-05T04:32:56.519Z,8.40
2022-11-05T04:35:57.910Z,8.95
2022-11-05T04:38:59.444Z,10.10
2022-11-05T04:42:00.937Z,10.68
2022-11-05T04:45:02.351Z,11.30
2022-11-05T04:48:04.390Z,10.37
2022-11-05T04:51:06.038Z,9.27
2022-11-05T04:54:07.622Z,12.82
2022-11-05T04:57:09.035Z,14.80
2022-11-05T05:00:11.361Z,11.37
2022-11-05T05:06:15.646Z,10.00
2022-11-05T05:12:18.544Z,11.48
2022-11-05T05:15:20.038Z,15.37
2022-11-05T05:18:21.475Z,12.13
2022-11-05T05:21:38.649Z,11.73
2022-11-05T05:24:40.049Z,14.80
2022-11-05T05:27:41.453Z,12.93
2022-11-05T05:30:43.000Z,13.63
2022-11-05T05:33:44.388Z,15.40
2022-11-05T05:36:45.856Z,15.55
2022-11-05T05:39:48.553Z,14.37
2022-11-05T05:42:55.528Z,16.80
2022-11-05T05:46:02.372Z,14.50
2022-11-05T05:49:09.441Z,16.20
2022-11-05T05:52:13.532Z,14.32
2022-11-05T05:55:15.281Z,19.10
2022-11-05T05:58:16.678Z,14.95
2022-11-05T06:01:19.570Z,16.15
2022-11-05T06:04:21.544Z,15.80
2022-11-05T06:07:23.050Z,16.37
2022-11-05T06:10:25.399Z,15.63
2022-11-05T06:16:28.522Z,14.40
2022-11-05T06:19:29.910Z,15.07
2022-11-05T06:22:31.292Z,14.88
2022-11-05T06:25:35.993Z,16.30
2022-11-05T06:28:42.184Z,15.18
2022-11-05T06:31:43.651Z,16.38
2022-11-05T06:34:45.052Z,14.33
2022-11-05T06:37:46.487Z,15.55
2022-11-05T06:40:47.903Z,14.37
2022-11-05T06:43:49.278Z,15.43
2022-11-05T06:46:50.657Z,17.33
2022-11-05T06:49:52.307Z,14.10
2022-11-05T06:52:58.892Z,14.57
2022-11-05T06:56:05.519Z,14.45
2022-11-05T06:59:08.474Z,17.48
2022-11-05T07:02:12.680Z,15.50
2022-11-05T07:05:15.788Z,15.63
2022-11-05T07:08:17.285Z,16.30
2022-11-05T07:11:18.694Z,16.17
2022-11-05T07:14:20.166Z,15.47
2022-11-05T07:17:22.696Z,15.10
2022-11-05T07:20:25.631Z,16.05
2022-11-05T07:23:28.686Z,16.42
2022-11-05T07:26:34.411Z,16.53
2022-11-05T07:29:36.121Z,17.70
2022-11-05T07:32:43.898Z,16.67
2022-11-05T07:35:45.338Z,15.02
2022-11-05T07:38:46.803Z,17.20
2022-11-05T07:41:48.441Z,18.17
2022-11-05T07:44:49.969Z,18.33
2022-11-05T07:47:57.321Z,19.00
2022-11-05T07:50:58.723Z,19.45
2022-11-05T07:54:00.258Z,23.17
2022-11-05T07:57:01.622Z,20.00
2022-11-05T08:00:03.284Z,20.85
2022-11-05T08:03:16.668Z,22.45
2022-11-05T08:06:18.495Z,22.52
2022-11-05T08:09:19.939Z,22.17
2022-11-05T08:12:21.378Z,20.93
2022-11-05T08:15:23.755Z,18.83
2022-11-05T08:21:32.661Z,19.30
2022-11-05T08:24:34.125Z,23.67
2022-11-05T08:27:35.494Z,21.17
2022-11-05T08:30:36.904Z,22.58
2022-11-05T08:33:38.426Z,21.30
2022-11-05T08:36:43.110Z,23.53
2022-11-05T08:39:44.564Z,22.83
2022-11-05T08:42:45.995Z,23.07
2022-11-05T08:45:47.718Z,24.70
2022-11-05T08:48:49.874Z,28.40
2022-11-05T08:51:51.318Z,22.63
2022-11-05T08:54:52.724Z,24.40
2022-11-05T08:57:58.960Z,24.23
2022-11-05T09:01:04.806Z,26.17
2022-11-05T09:04:06.841Z,23.67
2022-11-05T09:07:08.262Z,27.43
2022-11-05T09:10:10.037Z,24.45
2022-11-05T09:13:18.248Z,23.17
2022-11-05T09:16:23.375Z,23.00
2022-11-05T09:19:24.861Z,21.92
2022-11-05T09:22:26.339Z,23.13
2022-11-05T09:25:27.997Z,22.70
2022-11-05T09:28:31.495Z,22.77
2022-11-05T09:31:32.879Z,27.33
2022-11-05T09:34:34.672Z,24.43
2022-11-05T09:37:36.938Z,24.38
2022-11-05T09:43:57.147Z,18.38
2022-11-05T09:47:05.053Z,24.17
2022-11-05T09:50:12.888Z,24.40
2022-11-05T09:53:17.417Z,18.90
2022-11-05T09:56:23.096Z,20.52
2022-11-05T09:59:29.844Z,25.05
2022-11-05T10:02:35.250Z,18.25
2022-11-05T10:05:37.317Z,42.72
2022-11-05T10:08:43.261Z,27.80
2022-11-05T10:11:49.940Z,27.85
2022-11-05T10:15:16.350Z,22.60
2022-11-05T10:18:49.228Z,24.02
2022-11-05T10:22:09.914Z,17.67
2022-11-05T10:25:19.586Z,15.65
2022-11-05T10:28:24.816Z,16.65
2022-11-05T10:31:35.158Z,16.05
2022-11-05T10:34:39.101Z,18.90
2022-11-05T10:37:41.345Z,15.60
2022-11-05T10:40:53.613Z,19.60
2022-11-05T10:44:22.102Z,16.13
2022-11-05T10:47:29.387Z,20.13
2022-11-05T10:50:31.402Z,19.00
2022-11-05T10:53:36.260Z,19.15
2022-11-05T10:56:40.115Z,16.80
2022-11-05T10:59:41.517Z,19.50
2022-11-05T11:02:49.321Z,17.50
2022-11-05T11:05:59.799Z,23.73
2022-11-05T11:09:03.623Z,19.23
2022-11-05T11:12:16.905Z,18.42
2022-11-05T11:15:25.993Z,16.33
2022-11-05T11:18:40.200Z,20.42
2022-11-05T11:21:41.891Z,14.95
2022-11-05T11:24:54.105Z,15.00
2022-11-05T11:27:55.969Z,17.67
2022-11-05T11:31:06.449Z,12.77
2022-11-05T11:34:26.903Z,15.15
2022-11-05T11:37:33.703Z,15.57
2022-11-05T11:40:37.858Z,14.68
2022-11-05T11:43:42.160Z,15.57
2022-11-05T11:46:48.673Z,12.93
2022-11-05T11:49:58.072Z,13.05
2022-11-05T11:53:21.218Z,12.57
2022-11-05T11:56:24.229Z,13.00
2022-11-05T12:00:01.927Z,14.50
2022-11-05T12:03:01.841Z,12.45
2022-11-05T12:06:35.881Z,16.25
2022-11-05T12:10:02.201Z,14.35
2022-11-05T12:13:18.888Z,12.73
2022-11-05T12:16:33.351Z,14.85
2022-11-05T12:19:46.947Z,12.68
2022-11-05T12:23:13.543Z,12.18
2022-11-05T12:26:28.943Z,12.73
2022-11-05T12:29:37.483Z,13.95
2022-11-05T12:33:05.548Z,12.77
2022-11-05T12:36:50.190Z,16.88
2022-11-05T12:40:23.855Z,16.73
2022-11-05T12:43:53.295Z,13.98
2022-11-05T12:47:32.949Z,14.18
2022-11-05T12:50:45.605Z,15.43
2022-11-05T12:54:16.648Z,13.45
2022-11-05T12:57:19.853Z,13.57
2022-11-05T13:00:24.417Z,12.45
2022-11-05T13:03:40.922Z,13.50
2022-11-05T13:06:47.140Z,17.08
2022-11-05T13:09:55.300Z,13.88
2022-11-05T13:13:12.149Z,20.52
2022-11-05T13:16:26.884Z,11.80
2022-11-05T13:19:41.094Z,11.52
2022-11-05T13:22:49.826Z,12.30
2022-11-05T13:25:57.739Z,14.95
2022-11-05T13:29:07.833Z,12.82
2022-11-05T13:32:24.474Z,13.02
2022-11-05T13:35:46.888Z,13.90
2022-11-05T13:39:00.194Z,10.38
2022-11-05T13:42:26.382Z,8.52
2022-11-05T13:46:07.918Z,10.77
2022-11-05T13:49:31.031Z,10.90
2022-11-05T13:52:55.188Z,10.30
2022-11-05T13:56:23.172Z,9.45
2022-11-05T13:59:51.034Z,16.15
2022-11-05T14:03:02.231Z,10.75
2022-11-05T14:06:06.603Z,10.88
2022-11-05T14:09:11.842Z,10.63
2022-11-05T14:12:35.920Z,11.93
2022-11-05T14:15:37.358Z,10.10
2022-11-05T14:18:40.911Z,10.67
2022-11-05T14:21:53.626Z,9.80
2022-11-05T14:24:55.130Z,11.35
2022-11-05T14:27:58.391Z,13.25
2022-11-05T14:31:00.577Z,9.57
2022-11-05T14:34:10.876Z,12.52
2022-11-05T14:37:12.496Z,11.18
2022-11-05T14:40:20.048Z,11.75
2022-11-05T14:43:24.467Z,10.45
2022-11-05T14:46:41.096Z,15.13
2022-11-05T14:49:54.925Z,11.45
2022-11-05T14:52:59.707Z,11.35
2022-11-05T14:56:06.841Z,10.73
2022-11-05T14:59:28.336Z,11.45
2022-11-05T15:02:36.552Z,12.63
2022-11-05T15:05:47.994Z,9.90
2022-11-05T15:08:49.651Z,10.88
2022-11-05T15:12:02.330Z,11.00
2022-11-05T15:15:21.308Z,13.32
2022-11-05T15:18:43.252Z,15.30
2022-11-05T15:21:45.470Z,14.63
2022-11-05T15:28:02.569Z,14.13
2022-11-05T15:31:13.313Z,15.48
2022-11-05T15:34:30.972Z,14.73
2022-11-05T15:37:32.343Z,16.33
2022-11-05T15:40:33.876Z,18.63
2022-11-05T15:43:35.410Z,14.07
2022-11-05T15:46:36.813Z,16.87
2022-11-05T15:49:38.690Z,16.23
2022-11-05T15:52:48.704Z,16.58
2022-11-05T15:55:55.780Z,17.83
2022-11-05T15:59:03.563Z,15.88
2022-11-05T16:02:26.919Z,19.25
2022-11-05T16:05:33.518Z,16.95
2022-11-05T16:08:35.889Z,24.63
2022-11-05T16:11:37.309Z,37.15
2022-11-05T16:14:39.262Z,27.83
2022-11-05T16:17:58.757Z,20.40
2022-11-05T16:21:11.941Z,21.23
2022-11-05T16:24:29.096Z,18.70
2022-11-05T16:27:30.810Z,15.40
2022-11-05T16:30:32.465Z,16.77
2022-11-05T16:33:45.733Z,14.67
2022-11-05T16:36:47.156Z,14.00
2022-11-05T16:39:48.569Z,15.07
2022-11-05T16:42:52.201Z,16.40
2022-11-05T16:45:57.029Z,25.35
2022-11-05T16:48:58.407Z,29.15
2022-11-05T16:52:00.168Z,22.47
2022-11-05T16:55:01.690Z,20.67
2022-11-05T16:58:03.140Z,24.43
2022-11-05T17:01:10.185Z,36.67
2022-11-05T17:04:13.041Z,49.83
2022-11-05T17:07:14.466Z,44.17
2022-11-05T17:10:16.480Z,64.43
2022-11-05T17:13:19.551Z,49.58
2022-11-05T17:16:20.946Z,43.10
2022-11-05T17:19:22.327Z,38.73
2022-11-05T17:22:23.706Z,64.78
2022-11-05T17:25:25.638Z,72.97
2022-11-05T17:28:28.940Z,49.75
2022-11-05T17:31:30.398Z,38.25
2022-11-05T17:34:31.888Z,30.53
2022-11-05T17:37:36.360Z,29.00
2022-11-05T17:40:38.328Z,30.58
2022-11-05T17:43:39.942Z,32.20
2022-11-05T17:46:41.374Z,32.97
2022-11-05T17:49:42.770Z,29.13
2022-11-05T17:52:44.604Z,27.70
2022-11-05T17:55:46.897Z,29.85
2022-11-05T18:01:49.941Z,30.08
2022-11-05T18:04:51.550Z,31.65
2022-11-05T18:07:53.034Z,30.17
2022-11-05T18:10:54.515Z,33.23
2022-11-05T18:13:55.909Z,40.77
2022-11-05T18:17:00.001Z,35.10
2022-11-05T18:20:01.866Z,37.47
2022-11-05T18:23:03.396Z,49.08
2022-11-05T18:26:13.032Z,36.10
2022-11-05T18:29:14.454Z,43.22
2022-11-05T18:32:15.831Z,38.40
2022-11-05T18:35:17.293Z,37.90
2022-11-05T18:38:18.817Z,37.30
2022-11-05T18:41:21.557Z,33.05
2022-11-05T18:44:24.694Z,29.35
2022-11-05T18:47:26.101Z,26.40
2022-11-05T18:50:28.565Z,25.53
2022-11-05T18:53:30.023Z,23.35
2022-11-05T18:56:31.457Z,24.73
2022-11-05T18:59:38.600Z,25.67
2022-11-05T19:02:41.171Z,19.10
2022-11-05T19:05:42.835Z,17.48
2022-11-05T19:08:44.584Z,17.98
2022-11-05T19:11:46.202Z,16.77
2022-11-05T19:14:47.639Z,20.30
2022-11-05T19:17:49.018Z,18.52
2022-11-05T19:20:50.451Z,21.63
2022-11-05T19:23:53.027Z,17.50
2022-11-05T19:26:54.427Z,16.73
2022-11-05T19:29:55.830Z,15.83
2022-11-05T19:32:57.279Z,18.43
2022-11-05T19:35:58.916Z,16.50
2022-11-05T19:39:04.333Z,22.17
2022-11-05T19:42:06.647Z,19.88
2022-11-05T19:48:31.394Z,19.83
2022-11-05T19:51:32.948Z,18.55
2022-11-05T19:54:35.862Z,24.30
2022-11-05T19:57:37.424Z,21.70
2022-11-05T20:00:39.177Z,17.38
2022-11-05T20:03:41.207Z,20.02
2022-11-05T20:06:42.660Z,21.15
2022-11-05T20:09:44.047Z,18.13
2022-11-05T20:12:45.432Z,20.92
2022-11-05T20:15:47.066Z,15.43
2022-11-05T20:18:48.883Z,20.13
2022-11-05T20:21:50.366Z,18.02
2022-11-05T20:24:51.917Z,19.75
2022-11-05T20:27:53.415Z,20.80
2022-11-05T20:30:57.456Z,19.23
2022-11-05T20:33:58.876Z,21.60
2022-11-05T20:37:00.770Z,19.73
2022-11-05T20:40:02.163Z,19.08
2022-11-05T20:43:03.554Z,20.10
2022-11-05T20:46:04.978Z,16.48
2022-11-05T20:49:06.794Z,16.25
2022-11-05T20:52:08.186Z,17.13
2022-11-05T20:55:09.894Z,15.45
2022-11-05T20:58:12.661Z,19.33
2022-11-05T21:01:16.441Z,22.80
2022-11-05T21:04:17.947Z,23.77
2022-11-05T21:07:19.360Z,23.40
2022-11-05T21:10:20.932Z,20.25
2022-11-05T21:13:23.378Z,22.70
2022-11-05T21:19:26.125Z,16.38
2022-11-05T21:22:27.501Z,17.25
2022-11-05T21:25:28.991Z,15.40
2022-11-05T21:28:30.408Z,16.70
2022-11-05T21:31:31.808Z,20.67
2022-11-05T21:34:33.327Z,20.90
2022-11-05T21:37:34.745Z,15.07
2022-11-05T21:40:36.666Z,22.08
2022-11-05T21:43:38.714Z,16.10
2022-11-05T21:46:40.275Z,15.10
2022-11-05T21:49:41.698Z,16.07
2022-11-05T21:53:01.716Z,17.15
2022-11-05T21:56:39.291Z,14.98
2022-11-05T21:59:51.570Z,16.23
2022-11-05T22:02:53.147Z,17.60
2022-11-05T22:05:56.357Z,16.15
2022-11-05T22:08:57.771Z,13.65
2022-11-05T22:12:00.133Z,15.30
2022-11-05T22:15:01.649Z,15.10
2022-11-05T22:18:03.371Z,18.17
2022-11-05T22:21:05.152Z,14.00
2022-11-05T22:24:07.322Z,15.13
2022-11-05T22:27:13.525Z,14.70
2022-11-05T22:30:15.029Z,13.50
2022-11-05T22:33:17.185Z,14.00
2022-11-05T22:36:18.634Z,15.80
2022-11-05T22:39:20.571Z,14.07
2022-11-05T22:42:22.920Z,14.07
2022-11-05T22:45:24.396Z,15.27
2022-11-05T22:48:25.837Z,12.43
2022-11-05T22:51:30.538Z,11.90
2022-11-05T22:54:37.879Z,19.65
2022-11-05T22:57:40.400Z,19.05
2022-11-05T23:00:41.780Z,14.60
2022-11-05T23:03:45.552Z,13.20
2022-11-05T23:07:05.613Z,10.85
2022-11-05T23:10:27.550Z,13.15
2022-11-05T23:13:28.974Z,12.13
2022-11-05T23:17:03.386Z,13.15
2022-11-05T23:20:29.757Z,16.90
2022-11-05T23:23:49.613Z,13.23
2022-11-05T23:26:51.037Z,11.82
2022-11-05T23:29:52.575Z,11.80
2022-11-05T23:32:55.478Z,10.97
2022-11-05T23:36:15.341Z,11.77
2022-11-05T23:39:16.861Z,10.68
2022-11-05T23:42:37.466Z,11.53
2022-11-05T23:45:49.560Z,13.45
2022-11-05T23:48:52.614Z,12.38
2022-11-05T23:51:53.988Z,13.07
2022-11-05T23:55:02.108Z,11.75
2022-11-05T23:58:03.823Z,10.23
